createdAt,value
2022-11-10T00:00:47.945Z,8.90
2022-11-10T00:03:34.475Z,8.90
2022-11-10T00:06:20.679Z,8.80
2022-11-10T00:09:06.652Z,8.80
2022-11-10T00:11:52.830Z,8.80
2022-11-10T00:14:58.078Z,8.80
2022-11-10T00:17:44.302Z,8.80
2022-11-10T00:20:31.762Z,8.70
2022-11-10T00:23:17.942Z,8.70
2022-11-10T00:26:04.062Z,8.70
2022-11-10T00:28:49.392Z,8.70
2022-11-10T00:31:37.283Z,8.80
2022-11-10T00:34:25.055Z,8.70
2022-11-10T00:37:10.361Z,8.70
2022-11-10T00:39:56.557Z,8.60
2022-11-10T00:42:42.603Z,8.60
2022-11-10T00:45:30.253Z,8.60
2022-11-10T00:48:16.433Z,8.50
2022-11-10T00:51:02.470Z,8.50
2022-11-10T00:53:48.902Z,8.50
2022-11-10T00:56:34.969Z,8.50
2022-11-10T00:59:21.077Z,8.50
2022-11-10T01:02:07.663Z,8.50
2022-11-10T01:04:53.165Z,8.60
2022-11-10T01:07:39.150Z,8.50
2022-11-10T01:10:25.332Z,8.50
2022-11-10T01:13:10.898Z,8.40
2022-11-10T01:15:56.562Z,8.30
2022-11-10T01:18:42.658Z,8.30
2022-11-10T01:21:29.322Z,8.20
2022-11-10T01:24:16.139Z,8.20
2022-11-10T01:27:02.108Z,8.30
2022-11-10T01:29:48.086Z,8.30
2022-11-10T01:32:33.456Z,8.30
2022-11-10T01:35:18.940Z,8.30
2022-11-10T01:38:05.201Z,8.20
2022-11-10T01:40:51.068Z,8.10
2022-11-10T01:43:37.206Z,7.90
2022-11-10T01:46:23.201Z,7.70
2022-11-10T01:49:09.115Z,7.50
2022-11-10T01:52:09.873Z,7.60
2022-11-10T01:54:55.407Z,7.70
2022-11-10T01:57:41.060Z,7.70
2022-11-10T02:00:26.814Z,7.60
2022-11-10T02:03:33.511Z,7.50
2022-11-10T02:06:20.941Z,7.40
2022-11-10T02:09:07.121Z,7.30
2022-11-10T02:11:53.220Z,7.20
2022-11-10T02:14:38.663Z,7.20
2022-11-10T02:17:25.285Z,7.30
2022-11-10T02:20:14.141Z,7.30
2022-11-10T02:23:10.394Z,7.30
2022-11-10T02:25:56.665Z,7.30
2022-11-10T02:28:42.848Z,7.30
2022-11-10T02:31:29.110Z,7.40
2022-11-10T02:34:15.018Z,7.40
2022-11-10T02:37:01.177Z,7.40
2022-11-10T02:39:46.982Z,7.30
2022-11-10T02:42:32.633Z,7.20
2022-11-10T02:45:19.482Z,7.20
2022-11-10T02:48:04.942Z,7.30
2022-11-10T02:50:51.167Z,7.30
2022-11-10T02:53:37.259Z,7.30
2022-11-10T02:56:23.632Z,7.30
2022-11-10T02:59:09.950Z,7.40
2022-11-10T03:01:56.887Z,7.30
2022-11-10T03:04:43.087Z,7.20
2022-11-10T03:07:28.733Z,6.90
2022-11-10T03:10:16.433Z,6.90
2022-11-10T03:13:02.587Z,6.70
2022-11-10T03:15:49.101Z,6.70
2022-11-10T03:18:35.026Z,6.70
2022-11-10T03:21:21.223Z,6.80
2022-11-10T03:24:08.781Z,6.90
2022-11-10T03:26:55.233Z,7.00
2022-11-10T03:29:41.976Z,7.00
2022-11-10T03:32:27.561Z,7.00
2022-11-10T03:35:13.805Z,7.10
2022-11-10T03:37:59.986Z,7.10
2022-11-10T03:41:17.027Z,7.00
2022-11-10T03:43:51.293Z,6.90
2022-11-10T03:46:37.052Z,6.80
2022-11-10T03:49:23.010Z,6.70
2022-11-10T03:52:08.804Z,6.70
2022-11-10T03:54:58.034Z,6.60
2022-11-10T03:57:46.404Z,6.50
2022-11-10T04:00:33.045Z,6.50
2022-11-10T04:03:21.450Z,6.60
2022-11-10T04:06:29.732Z,6.50
2022-11-10T04:09:15.622Z,6.50
2022-11-10T04:12:24.665Z,6.40
2022-11-10T04:15:33.467Z,6.30
2022-11-10T04:18:27.064Z,6.30
2022-11-10T04:21:13.136Z,6.30
2022-11-10T04:23:59.400Z,6.30
2022-11-10T04:26:47.331Z,6.30
2022-11-10T04:29:33.330Z,6.10
2022-11-10T04:32:19.670Z,6.00
2022-11-10T04:35:05.116Z,6.00
2022-11-10T04:37:50.710Z,6.00
2022-11-10T04:40:37.472Z,6.10
2022-11-10T04:43:23.226Z,6.10
2022-11-10T04:46:23.059Z,6.20
2022-11-10T04:49:08.286Z,6.20
2022-11-10T04:51:54.327Z,6.30
2022-11-10T04:54:40.181Z,6.30
2022-11-10T04:57:25.440Z,6.40
2022-11-10T05:00:13.034Z,6.40
2022-11-10T05:03:02.804Z,6.40
2022-11-10T05:05:49.393Z,6.50
2022-11-10T05:08:35.101Z,6.40
2022-11-10T05:11:20.745Z,6.30
2022-11-10T05:14:06.563Z,6.30
2022-11-10T05:16:52.909Z,6.30
2022-11-10T05:19:38.590Z,6.20
2022-11-10T05:22:24.601Z,6.20
2022-11-10T05:25:10.309Z,6.20
2022-11-10T05:27:56.274Z,6.10
2022-11-10T05:30:42.230Z,6.10
2022-11-10T05:33:28.318Z,6.00
2022-11-10T05:36:13.995Z,6.00
2022-11-10T05:38:59.644Z,6.00
2022-11-10T05:41:45.562Z,5.90
2022-11-10T05:44:56.931Z,5.90
2022-11-10T05:47:42.650Z,5.80
2022-11-10T05:50:28.504Z,5.80
2022-11-10T05:53:14.845Z,5.80
2022-11-10T05:56:01.226Z,6.00
2022-11-10T05:58:51.062Z,5.90
2022-11-10T06:01:36.882Z,6.00
2022-11-10T06:04:23.139Z,6.40
2022-11-10T06:07:08.894Z,6.60
2022-11-10T06:09:55.267Z,6.30
2022-11-10T06:12:41.016Z,6.20
2022-11-10T06:15:26.573Z,6.10
2022-11-10T06:18:12.537Z,6.00
2022-11-10T06:20:58.330Z,6.00
2022-11-10T06:23:44.285Z,5.80
2022-11-10T06:26:30.299Z,5.80
2022-11-10T06:29:16.194Z,5.90
2022-11-10T06:32:01.665Z,5.90
2022-11-10T06:34:47.385Z,6.00
2022-11-10T06:37:33.561Z,6.00
2022-11-10T06:40:19.366Z,6.10
2022-11-10T06:43:05.321Z,6.10
2022-11-10T06:45:51.133Z,5.90
2022-11-10T06:48:37.023Z,5.90
2022-11-10T06:51:22.522Z,5.80
2022-11-10T06:54:07.979Z,5.80
2022-11-10T06:56:54.072Z,5.80
2022-11-10T06:59:39.389Z,5.80
2022-11-10T07:02:25.029Z,5.90
2022-11-10T07:05:11.020Z,5.90
2022-11-10T07:07:56.699Z,5.80
2022-11-10T07:10:42.997Z,5.80
2022-11-10T07:13:28.643Z,5.90
2022-11-10T07:16:14.330Z,5.90
2022-11-10T07:19:00.207Z,5.90
2022-11-10T07:21:45.744Z,5.90
2022-11-10T07:24:32.679Z,5.90
2022-11-10T07:27:18.655Z,5.90
2022-11-10T07:30:05.450Z,5.80
2022-11-10T07:33:00.918Z,5.90
2022-11-10T07:35:54.990Z,5.90
2022-11-10T07:38:41.193Z,6.00
2022-11-10T07:41:26.992Z,6.10
2022-11-10T07:44:13.094Z,6.10
2022-11-10T07:46:59.044Z,6.30
2022-11-10T07:49:44.984Z,6.40
2022-11-10T07:52:30.848Z,6.40
2022-11-10T07:55:17.098Z,6.60
2022-11-10T07:58:02.953Z,6.60
2022-11-10T08:00:49.374Z,6.80
2022-11-10T08:03:35.033Z,6.90
2022-11-10T08:06:21.108Z,7.10
2022-11-10T08:09:06.994Z,7.20
2022-11-10T08:11:52.738Z,7.30
2022-11-10T08:14:38.725Z,7.50
2022-11-10T08:17:23.981Z,7.60
2022-11-10T08:20:11.185Z,7.60
2022-11-10T08:23:20.836Z,7.80
2022-11-10T08:26:08.168Z,7.80
2022-11-10T08:28:54.798Z,7.80
2022-11-10T08:31:40.267Z,8.00
2022-11-10T08:34:26.457Z,8.10
2022-11-10T08:37:12.289Z,8.20
2022-11-10T08:39:58.579Z,8.20
2022-11-10T08:42:45.128Z,8.40
2022-11-10T08:45:36.761Z,8.50
2022-11-10T08:48:24.424Z,8.50
2022-11-10T08:54:57.798Z,8.50
2022-11-10T08:57:47.513Z,8.60
2022-11-10T09:00:33.276Z,8.70
2022-11-10T09:03:23.921Z,8.70
2022-11-10T09:06:09.584Z,8.80
2022-11-10T09:08:55.320Z,8.90
2022-11-10T09:11:41.231Z,8.90
2022-11-10T09:14:26.752Z,9.00
2022-11-10T09:17:12.766Z,9.10
2022-11-10T09:19:58.985Z,9.20
2022-11-10T09:22:44.662Z,9.20
2022-11-10T09:25:30.724Z,9.10
2022-11-10T09:28:17.018Z,9.20
2022-11-10T09:31:42.250Z,9.20
2022-11-10T09:34:52.709Z,9.10
2022-11-10T09:45:41.678Z,9.30
2022-11-10T09:48:58.576Z,9.20
2022-11-10T09:55:03.601Z,9.30
2022-11-10T09:57:49.188Z,9.30
2022-11-10T10:00:34.936Z,9.40
2022-11-10T10:03:24.587Z,9.50
2022-11-10T10:06:11.215Z,9.60
2022-11-10T10:09:13.509Z,9.70
2022-11-10T10:12:03.497Z,9.80
2022-11-10T10:15:44.745Z,9.80
2022-11-10T10:18:58.151Z,10.00
2022-11-10T10:25:17.219Z,10.10
2022-11-10T10:28:25.424Z,10.30
2022-11-10T10:31:25.729Z,10.40
2022-11-10T10:37:49.737Z,10.40
2022-11-10T10:40:36.520Z,10.50
2022-11-10T10:43:23.291Z,10.70
2022-11-10T10:46:12.617Z,10.60
2022-11-10T10:49:29.087Z,10.80
2022-11-10T10:52:16.964Z,10.80
2022-11-10T10:55:06.725Z,10.90
2022-11-10T10:57:56.814Z,10.90
2022-11-10T11:01:04.961Z,10.90
2022-11-10T11:03:51.685Z,10.90
2022-11-10T11:06:37.669Z,11.00
2022-11-10T11:09:28.922Z,10.90
2022-11-10T11:12:20.444Z,10.90
2022-11-10T11:15:13.236Z,10.90
2022-11-10T11:18:00.651Z,10.90
2022-11-10T11:21:12.211Z,10.90
2022-11-10T11:24:30.389Z,10.90
2022-11-10T11:27:23.637Z,11.00
2022-11-10T11:30:25.210Z,10.90
2022-11-10T11:33:49.562Z,10.90
2022-11-10T11:36:53.481Z,10.90
2022-11-10T11:39:44.309Z,11.00
2022-11-10T11:43:22.704Z,11.10
2022-11-10T11:46:44.932Z,11.30
2022-11-10T11:50:23.023Z,11.30
2022-11-10T11:53:31.150Z,11.40
2022-11-10T11:56:50.200Z,11.40
2022-11-10T12:00:03.019Z,11.30
2022-11-10T12:03:16.600Z,11.20
2022-11-10T12:06:41.420Z,11.20
2022-11-10T12:09:40.672Z,11.20
2022-11-10T12:12:29.585Z,11.20
2022-11-10T12:15:19.594Z,11.20
2022-11-10T12:18:19.770Z,11.30
2022-11-10T12:21:17.990Z,11.20
2022-11-10T12:24:22.400Z,11.20
2022-11-10T12:27:17.553Z,11.20
2022-11-10T12:30:05.168Z,11.30
2022-11-10T12:33:05.326Z,11.40
2022-11-10T12:35:51.057Z,11.30
2022-11-10T12:38:39.539Z,11.30
2022-11-10T12:41:29.245Z,11.40
2022-11-10T12:44:28.659Z,11.50
2022-11-10T12:47:16.979Z,12.70
2022-11-10T12:50:25.613Z,13.40
2022-11-10T12:53:15.233Z,14.40
2022-11-10T12:56:02.744Z,14.70
2022-11-10T12:58:48.099Z,14.80
2022-11-10T13:01:33.765Z,15.30
2022-11-10T13:04:20.175Z,15.80
2022-11-10T13:07:11.921Z,16.00
2022-11-10T13:10:15.659Z,16.10
2022-11-10T13:13:03.972Z,16.10
2022-11-10T13:15:51.769Z,15.70
2022-11-10T13:18:37.272Z,15.10
2022-11-10T13:21:51.008Z,14.50
2022-11-10T13:24:37.475Z,14.00
2022-11-10T13:27:37.857Z,13.50
2022-11-10T13:30:39.380Z,13.30
2022-11-10T13:33:25.046Z,13.10
2022-11-10T13:36:10.583Z,12.90
2022-11-10T13:38:56.668Z,12.80
2022-11-10T13:41:48.905Z,12.90
2022-11-10T13:44:41.997Z,12.70
2022-11-10T13:47:54.386Z,12.60
2022-11-10T13:50:47.122Z,12.40
2022-11-10T13:53:46.481Z,12.30
2022-11-10T13:56:55.256Z,12.40
2022-11-10T13:59:56.478Z,12.30
2022-11-10T14:02:46.686Z,12.20
2022-11-10T14:05:34.232Z,12.10
2022-11-10T14:08:21.681Z,12.10
2022-11-10T14:11:13.591Z,12.00
2022-11-10T14:14:12.680Z,11.90
2022-11-10T14:16:58.102Z,11.80
2022-11-10T14:19:44.115Z,11.70
2022-11-10T14:22:33.190Z,11.60
2022-11-10T14:25:37.558Z,11.60
2022-11-10T14:28:33.470Z,11.60
2022-11-10T14:31:23.507Z,11.60
2022-11-10T14:34:16.005Z,11.50
2022-11-10T14:37:02.029Z,11.40
2022-11-10T14:39:47.274Z,11.40
2022-11-10T14:42:33.399Z,11.40
2022-11-10T14:45:20.659Z,11.40
2022-11-10T14:48:10.404Z,11.40
2022-11-10T14:51:00.930Z,11.50
2022-11-10T14:53:51.222Z,11.50
2022-11-10T14:56:36.676Z,11.60
2022-11-10T14:59:22.177Z,11.50
2022-11-10T15:02:10.481Z,11.50
2022-11-10T15:04:57.337Z,11.40
2022-11-10T15:07:43.057Z,11.40
2022-11-10T15:10:49.547Z,11.30
2022-11-10T15:13:37.460Z,11.30
2022-11-10T15:16:30.100Z,11.30
2022-11-10T15:19:53.341Z,11.30
2022-11-10T15:22:39.029Z,11.20
2022-11-10T15:25:25.853Z,11.20
2022-11-10T15:28:14.296Z,11.20
2022-11-10T15:31:03.839Z,11.10
2022-11-10T15:33:51.341Z,11.10
2022-11-10T15:36:40.864Z,11.00
2022-11-10T15:39:27.205Z,10.90
2022-11-10T15:42:21.322Z,10.90
2022-11-10T15:45:07.041Z,10.80
2022-11-10T15:47:52.733Z,10.80
2022-11-10T15:50:38.391Z,10.80
2022-11-10T15:53:30.301Z,10.80
2022-11-10T15:56:17.746Z,10.80
2022-11-10T15:59:03.251Z,10.70
2022-11-10T16:01:48.944Z,10.80
2022-11-10T16:04:34.397Z,10.80
2022-11-10T16:07:20.112Z,10.80
2022-11-10T16:10:06.064Z,10.80
2022-11-10T16:12:51.363Z,10.70
2022-11-10T16:15:37.121Z,10.70
2022-11-10T16:18:24.136Z,10.70
2022-11-10T16:21:14.403Z,10.70
2022-11-10T16:24:00.123Z,10.80
2022-11-10T16:26:45.372Z,10.70
2022-11-10T16:29:31.733Z,10.80
2022-11-10T16:32:17.495Z,10.70
2022-11-10T16:35:03.642Z,10.70
2022-11-10T16:37:49.245Z,10.70
2022-11-10T16:40:34.760Z,10.70
2022-11-10T16:43:20.403Z,10.70
2022-11-10T16:46:26.701Z,10.70
2022-11-10T16:49:24.920Z,10.60
2022-11-10T16:52:14.882Z,10.60
2022-11-10T16:55:00.103Z,10.50
2022-11-10T16:57:45.620Z,10.50
2022-11-10T17:00:31.144Z,10.50
2022-11-10T17:03:40.297Z,10.40
2022-11-10T17:06:27.233Z,10.30
2022-11-10T17:09:20.267Z,10.30
2022-11-10T17:12:05.810Z,10.30
2022-11-10T17:14:51.181Z,10.30
2022-11-10T17:17:36.798Z,10.20
2022-11-10T17:20:28.677Z,10.20
2022-11-10T17:23:14.638Z,10.20
2022-11-10T17:26:00.047Z,10.10
2022-11-10T17:28:45.699Z,10.10
2022-11-10T17:31:31.389Z,10.10
2022-11-10T17:34:16.675Z,10.00
2022-11-10T17:37:01.865Z,10.00
2022-11-10T17:39:47.347Z,10.00
2022-11-10T17:42:32.624Z,9.90
2022-11-10T17:45:22.758Z,9.90
2022-11-10T17:48:08.046Z,9.90
2022-11-10T17:50:53.644Z,9.80
2022-11-10T17:53:39.101Z,9.80
2022-11-10T17:56:25.316Z,9.80
2022-11-10T17:59:10.501Z,9.80
2022-11-10T18:01:56.093Z,9.90
2022-11-10T18:04:41.786Z,9.90
2022-11-10T18:07:26.961Z,9.90
2022-11-10T18:10:13.849Z,9.90
2022-11-10T18:12:59.101Z,9.90
2022-11-10T18:15:45.157Z,10.00
2022-11-10T18:18:30.540Z,9.90
2022-11-10T18:21:16.058Z,9.80
2022-11-10T18:24:01.856Z,9.90
2022-11-10T18:26:47.236Z,9.90
2022-11-10T18:29:32.517Z,9.90
2022-11-10T18:32:18.092Z,9.90
2022-11-10T18:35:03.504Z,9.80
2022-11-10T18:37:49.270Z,9.70
2022-11-10T18:40:34.561Z,9.60
2022-11-10T18:43:19.977Z,9.60
2022-11-10T18:46:05.491Z,9.60
2022-11-10T18:48:50.873Z,9.60
2022-11-10T18:51:36.552Z,9.60
2022-11-10T18:54:22.052Z,9.60
2022-11-10T18:57:07.289Z,9.60
2022-11-10T18:59:52.793Z,9.60
2022-11-10T19:02:38.130Z,9.70
2022-11-10T19:05:23.581Z,9.60
2022-11-10T19:08:09.184Z,9.70
2022-11-10T19:10:55.516Z,9.70
2022-11-10T19:13:40.794Z,9.70
2022-11-10T19:16:26.276Z,9.70
2022-11-10T19:19:11.743Z,9.80
2022-11-10T19:21:57.029Z,9.80
2022-11-10T19:25:06.374Z,9.80
2022-11-10T19:27:48.269Z,9.80
2022-11-10T19:30:33.787Z,9.80
2022-11-10T19:33:19.414Z,9.90
2022-11-10T19:36:06.484Z,9.80
2022-11-10T19:38:53.101Z,9.80
2022-11-10T19:41:38.762Z,9.80
2022-11-10T19:44:23.920Z,9.80
2022-11-10T19:47:09.239Z,9.80
2022-11-10T19:49:54.726Z,9.80
2022-11-10T19:52:40.295Z,9.80
2022-11-10T19:55:25.863Z,9.70
2022-11-10T19:58:11.066Z,9.80
2022-11-10T20:01:00.115Z,9.80
2022-11-10T20:03:45.628Z,9.70
2022-11-10T20:06:31.108Z,9.80
2022-11-10T20:09:16.257Z,9.70
2022-11-10T20:12:01.936Z,9.80
2022-11-10T20:14:47.204Z,9.80
2022-11-10T20:17:32.285Z,9.80
2022-11-10T20:20:17.907Z,9.70
2022-11-10T20:23:04.383Z,9.60
2022-11-10T20:25:49.711Z,9.70
2022-11-10T20:28:36.587Z,9.60
2022-11-10T20:31:24.186Z,9.70
2022-11-10T20:34:09.224Z,9.70
2022-11-10T20:36:54.942Z,9.70
2022-11-10T20:39:40.412Z,9.60
2022-11-10T20:42:25.962Z,9.60
2022-11-10T20:45:11.487Z,9.70
2022-11-10T20:47:57.782Z,9.70
2022-11-10T20:50:43.276Z,9.70
2022-11-10T20:53:28.752Z,9.70
2022-11-10T20:56:14.073Z,9.60
2022-11-10T20:58:59.416Z,9.60
2022-11-10T21:01:45.287Z,9.60
2022-11-10T21:04:30.492Z,9.60
2022-11-10T21:07:16.237Z,9.60
2022-11-10T21:10:01.637Z,9.60
2022-11-10T21:12:49.692Z,9.60
2022-11-10T21:15:37.695Z,9.60
2022-11-10T21:18:23.284Z,9.60
2022-11-10T21:21:21.415Z,9.60
2022-11-10T21:24:07.224Z,9.60
2022-11-10T21:26:52.781Z,9.60
2022-11-10T21:29:38.332Z,9.60
2022-11-10T21:32:23.510Z,9.50
2022-11-10T21:35:09.315Z,9.50
2022-11-10T21:37:54.615Z,9.50
2022-11-10T21:40:40.331Z,9.60
2022-11-10T21:43:25.821Z,9.40
2022-11-10T21:46:11.092Z,9.40
2022-11-10T21:48:56.417Z,9.40
2022-11-10T21:51:42.504Z,9.40
2022-11-10T21:54:27.755Z,9.40
2022-11-10T21:57:13.463Z,9.40
2022-11-10T21:59:58.704Z,9.40
2022-11-10T22:02:44.071Z,9.40
2022-11-10T22:05:29.656Z,9.30
2022-11-10T22:08:19.591Z,9.30
2022-11-10T22:11:30.738Z,9.30
2022-11-10T22:14:34.509Z,9.30
2022-11-10T22:17:39.021Z,9.30
2022-11-10T22:20:24.332Z,9.30
2022-11-10T22:23:10.920Z,9.40
2022-11-10T22:25:56.156Z,9.40
2022-11-10T22:28:41.673Z,9.30
2022-11-10T22:31:27.401Z,9.30
2022-11-10T22:34:12.594Z,9.30
2022-11-10T22:36:59.416Z,9.20
2022-11-10T22:40:03.556Z,9.20
2022-11-10T22:43:07.568Z,9.20
2022-11-10T22:45:53.195Z,9.20
2022-11-10T22:48:38.446Z,9.20
2022-11-10T22:51:23.996Z,9.20
2022-11-10T22:54:10.296Z,9.20
2022-11-10T22:56:55.866Z,9.20
2022-11-10T22:59:40.967Z,9.20
2022-11-10T23:02:26.478Z,9.10
2022-11-10T23:05:12.072Z,9.10
2022-11-10T23:07:57.462Z,9.10
2022-11-10T23:10:43.016Z,9.10
2022-11-10T23:13:28.594Z,9.00
2022-11-10T23:16:15.160Z,9.00
2022-11-10T23:19:00.895Z,9.00
2022-11-10T23:21:46.159Z,9.00
2022-11-10T23:24:31.625Z,9.00
2022-11-10T23:27:17.095Z,9.00
2022-11-10T23:30:02.694Z,8.90
2022-11-10T23:32:48.390Z,8.90
2022-11-10T23:35:33.638Z,8.90
2022-11-10T23:38:19.093Z,8.90
2022-11-10T23:41:05.748Z,8.90
2022-11-10T23:43:51.617Z,8.80
2022-11-10T23:46:37.523Z,8.80
2022-11-10T23:49:22.788Z,8.80
2022-11-10T23:52:08.319Z,8.90
2022-11-10T23:54:53.576Z,8.90
2022-11-10T23:57:39.097Z,8.80
